Time;durP1;ratioP1;P1;durP2;ratioP2;P2;SDS_P1;SDS_P2;PMS_P1;PMS_P2;Temp;Humidity;BMP_temperature;BMP_pressure;BME280_temperature;BME280_humidity;BME280_pressure;Samples;Min_cycle;Max_cycle;Signal;HPM_P1;HPM_P2
2023/08/22 00:00:09;;;;;;;12.82;9.32;;;;;;;18.05;100.00;102014.81;5091524;28;20050;-66
2023/08/22 00:02:34;;;;;;;12.63;7.82;;;;;;;18.07;100.00;102004.59;5091682;28;20189;-66
2023/08/22 00:05:00;;;;;;;13.07;8.60;;;;;;;18.05;100.00;102000.47;5091609;28;20110;-66
2023/08/22 00:07:25;;;;;;;15.00;9.35;;;;;;;18.04;100.00;101996.13;5091481;28;20028;-66
2023/08/22 00:09:50;;;;;;;13.98;9.10;;;;;;;17.98;100.00;101991.59;5091315;28;20028;-66
2023/08/22 00:12:16;;;;;;;15.63;8.65;;;;;;;17.94;100.00;101996.59;5091454;28;20012;-66
2023/08/22 00:14:41;;;;;;;12.07;8.88;;;;;;;17.96;100.00;101997.22;5089912;28;20040;-67
2023/08/22 00:17:08;;;;;;;15.63;9.13;;;;;;;17.94;100.00;101994.72;5091241;28;20060;-66
2023/08/22 00:19:35;;;;;;;14.98;9.68;;;;;;;17.94;100.00;101992.00;5091307;28;20140;-66
2023/08/22 00:22:01;;;;;;;18.15;8.93;;;;;;;17.94;100.00;101988.50;5091032;28;20560;-66
2023/08/22 00:24:26;;;;;;;14.60;9.75;;;;;;;17.94;100.00;101992.00;5091235;28;20039;-66
2023/08/22 00:26:52;;;;;;;13.80;8.45;;;;;;;17.99;100.00;101990.53;5091170;28;20070;-66
2023/08/22 00:29:17;;;;;;;14.48;8.60;;;;;;;17.97;100.00;101998.84;5091090;28;20028;-66
2023/08/22 00:31:42;;;;;;;13.70;8.70;;;;;;;17.94;100.00;101993.91;5089780;28;20039;-66
2023/08/22 00:34:08;;;;;;;17.58;10.38;;;;;;;17.95;100.00;101998.25;5090949;28;20081;-66
2023/08/22 00:36:33;;;;;;;14.63;10.23;;;;;;;17.93;100.00;102001.16;5071342;28;20042;-66
2023/08/22 00:38:58;;;;;;;13.55;9.88;;;;;;;17.89;100.00;101991.88;5071582;28;20030;-66
2023/08/22 00:41:24;;;;;;;15.00;9.65;;;;;;;17.88;100.00;101982.09;5071623;28;20506;-66
2023/08/22 00:43:49;;;;;;;16.15;10.02;;;;;;;17.87;100.00;101985.84;5090580;28;20360;-66
2023/08/22 00:46:14;;;;;;;14.77;9.15;;;;;;;17.82;100.00;101972.19;5090722;28;20059;-66
2023/08/22 00:48:40;;;;;;;14.80;9.38;;;;;;;17.89;100.00;101985.63;5090641;28;20144;-66
2023/08/22 00:51:06;;;;;;;12.52;9.02;;;;;;;17.95;100.00;101982.06;5090453;28;20423;-66
2023/08/22 00:53:33;;;;;;;17.13;9.27;;;;;;;17.98;100.00;101976.22;5090583;28;20980;-66
2023/08/22 00:55:58;;;;;;;13.77;9.63;;;;;;;18.03;100.00;101971.00;5090206;28;20051;-66
2023/08/22 00:58:24;;;;;;;28.48;11.32;;;;;;;18.02;100.00;101969.31;5089491;28;20082;-66
2023/08/22 01:00:49;;;;;;;14.32;9.57;;;;;;;18.05;100.00;101968.91;5090393;28;20056;-66
2023/08/22 01:03:15;;;;;;;15.13;9.13;;;;;;;17.99;100.00;101964.38;5090348;28;20082;-66
2023/08/22 01:05:45;;;;;;;17.00;9.00;;;;;;;17.94;100.00;101951.53;5090483;28;20044;-66
2023/08/22 01:08:17;;;;;;;16.20;10.25;;;;;;;17.96;100.00;101959.41;5071188;28;20094;-66
2023/08/22 01:10:50;;;;;;;16.15;9.32;;;;;;;17.89;100.00;101962.19;5070840;28;20052;-66
2023/08/22 01:13:27;;;;;;;16.88;8.80;;;;;;;17.83;100.00;101956.81;5089923;28;20020;-66
2023/08/22 01:15:54;;;;;;;12.77;8.27;;;;;;;17.77;100.00;101968.44;5089916;28;20051;-66
2023/08/22 01:18:20;;;;;;;15.02;8.95;;;;;;;17.73;100.00;101968.88;5090199;28;20098;-66
2023/08/22 01:20:46;;;;;;;15.15;8.35;;;;;;;17.68;100.00;101959.75;5090064;28;20111;-66
2023/08/22 01:23:11;;;;;;;15.82;8.60;;;;;;;17.73;100.00;101966.16;5089963;28;20135;-67
2023/08/22 01:25:37;;;;;;;12.68;8.88;;;;;;;17.71;100.00;101967.41;5089891;28;20064;-66
2023/08/22 01:28:26;;;;;;;13.82;10.45;;;;;;;17.68;100.00;101966.00;5090168;28;20043;-66
2023/08/22 01:30:57;;;;;;;16.27;9.23;;;;;;;17.61;100.00;101967.91;5089683;28;20031;-66
2023/08/22 01:33:36;;;;;;;16.58;9.63;;;;;;;17.60;100.00;101966.25;5089916;28;20016;-66
2023/08/22 01:36:03;;;;;;;13.50;9.13;;;;;;;17.54;100.00;101959.03;5089867;28;20028;-66
2023/08/22 01:38:30;;;;;;;24.58;10.65;;;;;;;17.48;100.00;101954.50;5089753;28;20028;-66
2023/08/22 01:40:57;;;;;;;19.98;11.38;;;;;;;17.46;100.00;101951.19;5089742;28;20032;-66
2023/08/22 01:43:22;;;;;;;16.23;10.30;;;;;;;17.43;100.00;101952.44;5089618;28;20546;-66
2023/08/22 01:45:48;;;;;;;14.93;9.93;;;;;;;17.42;100.00;101947.25;5089655;28;20136;-66
2023/08/22 01:48:14;;;;;;;14.32;9.65;;;;;;;17.44;100.00;101954.09;5089637;28;20032;-66
2023/08/22 01:50:39;;;;;;;22.17;12.18;;;;;;;17.44;100.00;101950.56;5089507;28;20031;-66
2023/08/22 01:53:05;;;;;;;18.20;11.82;;;;;;;17.40;100.00;101958.28;5089478;28;20105;-66
2023/08/22 01:55:30;;;;;;;16.58;9.55;;;;;;;17.37;100.00;101945.22;5089110;28;20040;-66
2023/08/22 01:57:55;;;;;;;16.33;10.40;;;;;;;17.38;100.00;101957.66;5088310;28;20044;-66
2023/08/22 02:00:21;;;;;;;18.63;11.60;;;;;;;17.40;100.00;101950.19;5089322;28;20051;-66
2023/08/22 02:02:47;;;;;;;16.25;10.35;;;;;;;17.36;100.00;101945.44;5088022;28;20040;-66
2023/08/22 02:05:12;;;;;;;19.00;11.80;;;;;;;17.41;100.00;101946.44;5089356;28;20035;-66
2023/08/22 02:07:38;;;;;;;20.00;10.80;;;;;;;17.39;100.00;101936.91;5087944;28;20032;-66
2023/08/22 02:10:06;;;;;;;24.52;10.50;;;;;;;17.43;100.00;101944.34;5089032;28;20024;-66
2023/08/22 02:12:32;;;;;;;19.98;11.20;;;;;;;17.43;100.00;101944.34;5089316;28;20443;-66
2023/08/22 02:14:58;;;;;;;18.17;12.25;;;;;;;17.42;100.00;101948.09;5089084;28;20098;-66
2023/08/22 02:17:23;;;;;;;18.33;11.45;;;;;;;17.43;100.00;101941.66;5087789;28;20047;-66
2023/08/22 02:19:48;;;;;;;16.15;10.88;;;;;;;17.45;100.00;101944.16;5089086;28;20429;-66
2023/08/22 02:22:14;;;;;;;18.67;11.57;;;;;;;17.47;100.00;101939.34;5088977;28;20111;-66
2023/08/22 02:24:40;;;;;;;15.98;11.85;;;;;;;17.45;100.00;101934.19;5089082;28;20035;-66
2023/08/22 02:27:05;;;;;;;17.38;10.55;;;;;;;17.47;100.00;101940.16;5089098;28;20028;-66
2023/08/22 02:29:31;;;;;;;17.77;11.40;;;;;;;17.43;100.00;101930.03;5089284;28;20397;-66
2023/08/22 02:31:57;;;;;;;19.98;11.10;;;;;;;17.41;100.00;101934.81;5069471;28;20566;-66
2023/08/22 02:34:24;;;;;;;18.08;11.27;;;;;;;17.41;100.00;101942.91;5069676;28;20115;-66
2023/08/22 02:36:49;;;;;;;16.08;11.00;;;;;;;17.39;100.00;101934.19;5069672;28;20111;-66
2023/08/22 02:39:15;;;;;;;19.60;10.85;;;;;;;17.37;100.00;101934.44;5069610;28;20553;-66
2023/08/22 02:41:40;;;;;;;15.75;10.63;;;;;;;17.33;100.00;101935.91;5069516;28;20078;-66
2023/08/22 02:44:06;;;;;;;19.55;10.73;;;;;;;17.33;100.00;101927.81;5069442;28;20025;-66
2023/08/22 02:46:31;;;;;;;17.02;11.05;;;;;;;17.31;100.00;101924.50;5069537;28;20377;-66
2023/08/22 02:48:57;;;;;;;17.85;10.50;;;;;;;17.26;100.00;101927.81;5068281;28;20090;-66
2023/08/22 02:51:22;;;;;;;14.45;10.45;;;;;;;17.22;100.00;101926.63;5069357;28;20037;-66
2023/08/22 02:53:48;;;;;;;18.08;10.95;;;;;;;17.22;100.00;101928.50;5069461;28;20031;-66
2023/08/22 02:56:14;;;;;;;17.35;10.50;;;;;;;17.24;100.00;101931.81;5069087;28;20053;-66
2023/08/22 02:58:40;;;;;;;17.38;11.98;;;;;;;17.27;100.00;101925.97;5069354;28;20032;-66
2023/08/22 03:01:07;;;;;;;17.67;11.43;;;;;;;17.23;100.00;101930.94;5069599;28;20033;-66
2023/08/22 03:03:32;;;;;;;15.48;10.63;;;;;;;17.19;100.00;101927.06;5069150;28;20377;-66
2023/08/22 03:05:58;;;;;;;16.15;10.30;;;;;;;17.20;100.00;101928.69;5088704;28;20103;-66
2023/08/22 03:08:23;;;;;;;18.05;11.60;;;;;;;17.22;100.00;101933.88;5087138;28;20034;-66
2023/08/22 03:10:49;;;;;;;17.25;12.25;;;;;;;17.21;100.00;101924.97;5088513;28;20034;-66
2023/08/22 03:13:14;;;;;;;16.17;9.40;;;;;;;17.16;100.00;101932.03;5088603;28;20123;-66
2023/08/22 03:15:40;;;;;;;17.48;10.60;;;;;;;17.17;100.00;101936.38;5088643;28;20024;-66
2023/08/22 03:18:05;;;;;;;16.42;10.07;;;;;;;17.18;100.00;101933.47;5088615;28;20035;-66
2023/08/22 03:20:31;;;;;;;15.20;10.48;;;;;;;17.15;100.00;101927.69;5089038;28;20032;-66
2023/08/22 03:22:56;;;;;;;16.70;9.23;;;;;;;17.11;100.00;101929.13;5092178;28;20037;-66
2023/08/22 03:25:21;;;;;;;15.88;9.68;;;;;;;17.09;100.00;101930.19;5092360;28;20028;-66
2023/08/22 03:27:47;;;;;;;15.13;9.48;;;;;;;17.05;100.00;101920.88;5092406;28;20113;-66
2023/08/22 03:30:12;;;;;;;14.57;10.55;;;;;;;17.06;100.00;101924.41;5092237;28;20108;-66
2023/08/22 03:32:37;;;;;;;16.05;10.93;;;;;;;17.05;100.00;101922.75;5092413;28;20031;-66
2023/08/22 03:35:03;;;;;;;18.05;11.55;;;;;;;17.05;100.00;101920.03;5090954;28;20063;-66
2023/08/22 03:37:29;;;;;;;16.73;10.88;;;;;;;17.03;100.00;101917.56;5092137;28;20039;-66
2023/08/22 03:39:55;;;;;;;17.98;10.93;;;;;;;17.06;100.00;101921.72;5092008;28;20032;-66
2023/08/22 03:42:20;;;;;;;14.23;9.60;;;;;;;17.02;100.00;101923.16;5091864;28;20513;-66
2023/08/22 03:44:46;;;;;;;14.23;9.20;;;;;;;17.05;100.00;101920.88;5092073;28;20463;-66
2023/08/22 03:47:11;;;;;;;17.05;10.60;;;;;;;17.03;100.00;101920.28;5091914;28;20372;-66
2023/08/22 03:49:37;;;;;;;15.85;9.82;;;;;;;16.94;100.00;101910.75;5091790;28;20024;-66
2023/08/22 03:52:03;;;;;;;17.05;8.95;;;;;;;16.88;100.00;101922.41;5091618;28;20027;-66
2023/08/22 03:54:28;;;;;;;17.45;10.40;;;;;;;16.89;100.00;101925.91;5091610;28;20359;-66
2023/08/22 03:56:53;;;;;;;15.45;10.27;;;;;;;16.86;100.00;101921.78;5091751;28;20077;-66
2023/08/22 03:59:19;;;;;;;15.77;10.02;;;;;;;16.87;100.00;101920.72;5091717;28;20033;-66
2023/08/22 04:01:44;;;;;;;14.25;9.15;;;;;;;16.85;100.00;101920.13;5091930;28;20364;-66
2023/08/22 04:04:10;;;;;;;16.65;9.77;;;;;;;16.82;100.00;101918.69;5091694;28;20032;-66
2023/08/22 04:06:35;;;;;;;15.52;9.68;;;;;;;16.76;100.00;101924.88;5091798;28;20959;-66
2023/08/22 04:09:01;;;;;;;14.05;9.30;;;;;;;16.74;100.00;101926.97;5091169;28;20075;-66
2023/08/22 04:11:26;;;;;;;14.38;9.02;;;;;;;16.71;100.00;101926.53;5091585;28;20456;-66
2023/08/22 04:13:52;;;;;;;13.13;8.35;;;;;;;16.68;100.00;101924.28;5091321;28;20119;-66
2023/08/22 04:16:17;;;;;;;16.08;10.00;;;;;;;16.64;100.00;101922.00;5091429;28;20529;-66
2023/08/22 04:18:42;;;;;;;18.15;9.60;;;;;;;16.63;100.00;101924.91;5091318;28;20038;-66
2023/08/22 04:21:08;;;;;;;14.43;9.90;;;;;;;16.58;100.00;101914.78;5091353;28;20051;-66
2023/08/22 04:23:33;;;;;;;12.65;8.73;;;;;;;16.62;100.00;101917.88;5091173;28;20031;-66
2023/08/22 04:25:58;;;;;;;16.60;9.50;;;;;;;16.61;100.00;101917.06;5091175;28;20130;-66
2023/08/22 04:28:24;;;;;;;11.32;8.45;;;;;;;16.59;100.00;101911.03;5091137;28;20028;-66
2023/08/22 04:30:50;;;;;;;16.80;10.80;;;;;;;16.64;100.00;101908.53;5090996;28;20044;-66
2023/08/22 04:33:15;;;;;;;14.75;8.88;;;;;;;16.65;100.00;101912.06;5072205;28;20110;-66
2023/08/22 04:35:41;;;;;;;13.43;9.35;;;;;;;16.63;100.00;101914.94;5070937;28;20043;-66
2023/08/22 04:38:06;;;;;;;17.42;9.38;;;;;;;16.64;100.00;101923.88;5090399;28;20028;-66
2023/08/22 04:40:32;;;;;;;14.05;8.20;;;;;;;16.63;100.00;101917.66;5090050;28;20047;-66
2023/08/22 04:42:57;;;;;;;12.48;9.23;;;;;;;16.62;100.00;101915.19;5089860;28;20365;-66
2023/08/22 04:45:22;;;;;;;14.77;9.45;;;;;;;16.59;100.00;101916.44;5089993;28;20056;-66
2023/08/22 04:47:48;;;;;;;14.70;9.25;;;;;;;16.61;100.00;101916.19;5090123;28;20513;-66
2023/08/22 04:50:13;;;;;;;15.50;9.35;;;;;;;16.59;100.00;101913.72;5088928;28;20445;-66
2023/08/22 04:52:39;;;;;;;15.68;9.32;;;;;;;16.63;100.00;101914.94;5090527;28;20100;-66
2023/08/22 04:55:05;;;;;;;14.90;8.80;;;;;;;16.62;100.00;101920.56;5090077;28;21073;-66
2023/08/22 04:57:30;;;;;;;13.02;8.48;;;;;;;16.63;100.00;101927.59;5089577;28;20031;-66
2023/08/22 04:59:56;;;;;;;16.50;9.32;;;;;;;16.62;100.00;101915.19;5089102;28;20024;-66
2023/08/22 05:02:22;;;;;;;15.13;8.82;;;;;;;16.57;100.00;101913.09;5088777;28;20078;-66
2023/08/22 05:04:48;;;;;;;13.52;8.88;;;;;;;16.54;100.00;101913.53;5090401;28;20058;-66
2023/08/22 05:07:13;;;;;;;13.85;8.50;;;;;;;16.52;100.00;101912.09;5090476;28;20056;-66
2023/08/22 05:09:38;;;;;;;13.23;8.68;;;;;;;16.55;100.00;101917.88;5090205;28;20425;-66
2023/08/22 05:12:04;;;;;;;13.68;8.73;;;;;;;16.58;100.00;101919.31;5090184;28;20035;-66
2023/08/22 05:14:32;;;;;;;14.50;9.95;;;;;;;16.62;100.00;101921.38;5073264;28;20040;-66
2023/08/22 05:16:58;;;;;;;21.58;10.55;;;;;;;16.67;100.00;101915.38;5088783;28;20040;-66
2023/08/22 05:19:23;;;;;;;13.90;8.80;;;;;;;16.72;100.00;101912.06;5090177;28;20039;-66
2023/08/22 05:21:48;;;;;;;17.17;10.88;;;;;;;16.79;100.00;101920.97;5090052;28;20028;-66
2023/08/22 05:24:14;;;;;;;22.42;12.85;;;;;;;16.83;100.00;101916.81;5090069;28;20489;-66
2023/08/22 05:26:39;;;;;;;15.73;10.98;;;;;;;16.92;100.00;101920.09;5090013;28;20066;-66
2023/08/22 05:29:04;;;;;;;17.42;10.82;;;;;;;16.99;100.00;101918.22;5089909;28;20020;-66
2023/08/22 05:31:30;;;;;;;16.52;8.52;;;;;;;17.07;100.00;101916.09;5089774;28;20364;-66
2023/08/22 05:33:55;;;;;;;28.55;11.45;;;;;;;17.23;100.00;101912.09;5089477;28;20028;-67
2023/08/22 05:36:20;;;;;;;17.05;12.27;;;;;;;17.40;100.00;101919.69;5089635;28;20020;-66
2023/08/22 05:38:46;;;;;;;16.80;11.40;;;;;;;17.46;100.00;101926.91;5089886;28;20538;-66
2023/08/22 05:41:11;;;;;;;17.98;10.80;;;;;;;17.48;100.00;101922.94;5089591;28;20425;-66
2023/08/22 05:43:37;;;;;;;23.13;12.50;;;;;;;17.52;100.00;101924.16;5089052;28;20039;-66
2023/08/22 05:46:02;;;;;;;19.88;11.75;;;;;;;17.57;100.00;101918.13;5089739;28;20115;-66
2023/08/22 05:48:28;;;;;;;19.80;12.32;;;;;;;17.64;100.00;101921.63;5089590;28;20387;-66
2023/08/22 05:50:54;;;;;;;20.40;13.75;;;;;;;17.69;100.00;101924.50;5089386;28;20378;-66
2023/08/22 05:53:19;;;;;;;20.17;12.65;;;;;;;17.74;100.00;101932.75;5089444;28;20024;-66
2023/08/22 05:55:44;;;;;;;23.35;15.98;;;;;;;17.80;100.00;101941.06;5089289;28;20458;-66
2023/08/22 05:58:10;;;;;;;20.88;14.90;;;;;;;17.83;100.00;101936.03;5089484;28;20122;-66
2023/08/22 06:00:35;;;;;;;19.08;14.18;;;;;;;17.85;100.00;101925.03;5089402;28;20047;-66
2023/08/22 06:03:01;;;;;;;22.02;14.95;;;;;;;17.91;100.00;101934.94;5089264;28;20038;-66
2023/08/22 06:05:27;;;;;;;19.42;15.70;;;;;;;17.98;100.00;101938.44;5089233;28;20036;-66
2023/08/22 06:07:53;;;;;;;21.88;15.65;;;;;;;18.00;100.00;101933.66;5089309;28;20845;-66
2023/08/22 06:10:19;;;;;;;19.30;15.55;;;;;;;18.05;100.00;101936.53;5089462;28;20035;-66
2023/08/22 06:12:44;;;;;;;20.33;15.60;;;;;;;18.12;100.00;101941.84;5087874;28;20039;-66
2023/08/22 06:15:09;;;;;;;20.88;15.30;;;;;;;18.15;100.00;101942.22;5087930;28;20039;-66
2023/08/22 06:17:35;;;;;;;20.23;15.52;;;;;;;18.19;100.00;101950.72;5089080;28;20023;-66
2023/08/22 06:20:00;;;;;;;21.25;14.48;;;;;;;18.23;100.00;101949.22;5089123;28;20046;-66
2023/08/22 06:22:26;;;;;;;21.15;14.30;;;;;;;18.24;100.00;101955.47;5088746;28;20063;-66
2023/08/22 06:24:51;;;;;;;23.90;14.13;;;;;;;18.28;100.00;101948.56;5089010;28;20048;-66
2023/08/22 06:27:17;;;;;;;19.90;14.20;;;;;;;18.31;100.00;101942.72;5087674;28;20390;-66
2023/08/22 06:29:42;;;;;;;21.13;13.30;;;;;;;18.34;100.00;101940.41;5088932;28;20368;-66
2023/08/22 06:32:07;;;;;;;21.02;13.93;;;;;;;18.39;100.00;101947.84;5087688;28;20028;-66
2023/08/22 06:34:33;;;;;;;20.10;15.20;;;;;;;18.45;100.00;101952.38;5088964;28;20032;-66
2023/08/22 06:36:58;;;;;;;22.38;13.88;;;;;;;18.51;100.00;101948.78;5088925;28;20119;-66
2023/08/22 06:39:24;;;;;;;23.92;14.40;;;;;;;18.56;100.00;101953.53;5089074;28;20032;-66
2023/08/22 06:41:49;;;;;;;18.85;14.15;;;;;;;18.61;100.00;101940.97;5088975;28;20040;-66
2023/08/22 06:44:14;;;;;;;23.38;13.88;;;;;;;18.68;100.00;101940.94;5088842;28;20030;-66
2023/08/22 06:46:40;;;;;;;20.58;14.20;;;;;;;18.76;100.00;101948.78;5088690;28;20051;-66
2023/08/22 06:49:05;;;;;;;23.45;15.13;;;;;;;18.81;100.00;101937.25;5088707;28;20081;-66
2023/08/22 06:51:32;;;;;;;20.38;14.70;;;;;;;18.92;100.00;101951.94;5087388;28;20383;-66
2023/08/22 06:53:57;;;;;;;21.40;15.70;;;;;;;18.99;100.00;101961.63;5088016;28;20033;-66
2023/08/22 06:56:23;;;;;;;22.20;16.02;;;;;;;19.05;100.00;101960.72;5090025;28;20056;-66
2023/08/22 06:58:48;;;;;;;22.33;15.20;;;;;;;19.14;100.00;101961.22;5091956;28;20041;-66
2023/08/22 07:01:14;;;;;;;20.85;14.68;;;;;;;19.20;100.00;101964.91;5092529;28;20032;-66
2023/08/22 07:03:39;;;;;;;20.35;14.40;;;;;;;19.25;100.00;101968.56;5092346;28;20036;-65
2023/08/22 07:06:04;;;;;;;21.05;13.52;;;;;;;19.31;100.00;101961.44;5092366;28;20035;-66
2023/08/22 07:08:30;;;;;;;18.48;13.15;;;;;;;19.41;100.00;101967.16;5092152;28;20390;-66
2023/08/22 07:11:03;;;;;;;18.88;12.93;;;;;;;19.54;100.00;101970.69;5092475;28;20024;-66
2023/08/22 07:13:29;;;;;;;16.30;9.35;;;;;;;19.63;100.00;101970.16;5072701;28;20120;-66
2023/08/22 07:15:54;;;;;;;19.75;11.32;;;;;;;19.76;100.00;101974.59;5072665;28;20081;-66
2023/08/22 07:18:20;;;;;;;19.23;13.35;;;;;;;19.88;100.00;101966.50;5072934;28;20566;-66
2023/08/22 07:20:46;;;;;;;18.83;13.20;;;;;;;20.04;100.00;101982.09;5072487;28;20033;-66
2023/08/22 07:23:12;;;;;;;19.67;11.35;;;;;;;20.09;100.00;101979.50;5072625;28;20029;-66
2023/08/22 07:25:37;;;;;;;14.18;8.88;;;;;;;20.02;100.00;101980.69;5072452;28;20407;-66
2023/08/22 07:28:03;;;;;;;13.18;9.63;;;;;;;20.01;100.00;101979.00;5072563;28;20060;-66
2023/08/22 07:30:29;;;;;;;13.82;7.57;;;;;;;20.05;100.00;101989.16;5072270;28;20032;-66
2023/08/22 07:32:54;;;;;;;12.02;7.50;;;;;;;20.10;100.00;101986.56;5072870;28;20029;-66
2023/08/22 07:35:19;;;;;;;15.10;7.93;;;;;;;20.20;100.00;101993.28;5070263;28;20074;-66
2023/08/22 07:37:45;;;;;;;14.50;8.70;;;;;;;20.34;100.00;101987.44;5087741;28;20036;-65
2023/08/22 07:40:10;;;;;;;14.40;8.75;;;;;;;20.47;100.00;101980.97;5088104;28;20031;-64
2023/08/22 07:42:36;;;;;;;16.10;8.88;;;;;;;20.67;100.00;101974.38;5087957;28;20036;-65
2023/08/22 07:45:03;;;;;;;14.15;7.60;;;;;;;20.86;100.00;101973.19;5087815;28;20085;-66
2023/08/22 07:47:29;;;;;;;10.88;6.60;;;;;;;20.95;100.00;101982.59;5087803;28;20032;-65
2023/08/22 07:49:54;;;;;;;12.30;6.22;;;;;;;21.13;100.00;101988.94;5087817;28;20047;-66
2023/08/22 07:52:20;;;;;;;7.60;4.10;;;;;;;21.24;94.83;101982.66;5087694;28;20039;-69
2023/08/22 07:54:45;;;;;;;9.30;3.30;;;;;;;21.40;93.42;101978.41;5070452;28;20059;-65
2023/08/22 07:57:11;;;;;;;4.55;2.10;;;;;;;21.48;90.49;101979.91;5066199;28;20261;-66
2023/08/22 07:59:38;;;;;;;5.88;3.38;;;;;;;21.55;87.39;101986.84;5068104;28;20112;-66
2023/08/22 08:02:04;;;;;;;13.05;4.63;;;;;;;21.52;87.64;101983.78;5086838;28;20039;-66
2023/08/22 08:04:30;;;;;;;11.43;6.20;;;;;;;21.53;88.17;101988.97;5083531;28;20025;-67
2023/08/22 08:06:56;;;;;;;10.45;5.78;;;;;;;21.54;89.19;101989.81;5067623;28;20026;-68
2023/08/22 08:09:21;;;;;;;10.38;4.03;;;;;;;21.66;90.79;101991.38;5069629;28;20036;-68
2023/08/22 08:11:47;;;;;;;11.52;5.07;;;;;;;21.71;90.17;101987.94;5069266;28;20029;-68
2023/08/22 08:14:12;;;;;;;10.13;4.65;;;;;;;21.77;90.34;101994.28;5071644;28;20104;-68
2023/08/22 08:16:38;;;;;;;9.38;5.57;;;;;;;21.88;90.47;102002.41;5071550;28;20028;-68
2023/08/22 08:19:04;;;;;;;10.50;5.32;;;;;;;22.00;88.68;101999.59;5090370;28;20027;-68
2023/08/22 08:21:30;;;;;;;12.00;5.18;;;;;;;22.07;86.92;101999.47;5090934;28;20730;-68
2023/08/22 08:23:55;;;;;;;7.55;4.78;;;;;;;22.04;86.55;102000.78;5071308;28;20103;-68
2023/08/22 08:26:20;;;;;;;7.78;4.32;;;;;;;22.02;86.64;102002.09;5071296;28;20035;-68
2023/08/22 08:28:46;;;;;;;11.07;4.25;;;;;;;21.96;86.90;102003.06;5071491;28;20085;-68
2023/08/22 08:31:12;;;;;;;10.88;4.43;;;;;;;21.92;86.54;102008.16;5071306;28;20041;-68
2023/08/22 08:33:37;;;;;;;14.85;5.30;;;;;;;21.85;86.17;101997.47;5071319;28;20029;-68
2023/08/22 08:36:04;;;;;;;9.13;4.07;;;;;;;21.85;88.13;102000.19;5071180;28;20032;-68
2023/08/22 08:38:29;;;;;;;9.80;4.93;;;;;;;21.83;88.48;101999.59;5071205;28;20033;-68
2023/08/22 08:40:59;;;;;;;6.97;4.63;;;;;;;21.82;87.23;101999.81;5071228;28;20428;-68
2023/08/22 08:43:25;;;;;;;8.10;4.65;;;;;;;21.89;89.81;102004.03;5090355;28;20570;-68
2023/08/22 08:45:51;;;;;;;9.68;4.88;;;;;;;22.01;86.74;102006.69;5090303;28;20028;-68
2023/08/22 08:48:17;;;;;;;13.98;4.93;;;;;;;22.06;87.21;102000.50;5090380;28;20395;-68
2023/08/22 08:50:43;;;;;;;9.40;5.53;;;;;;;22.08;89.32;102004.63;5090318;28;20028;-68
2023/08/22 08:53:09;;;;;;;13.10;4.93;;;;;;;22.13;88.46;102008.50;5090121;28;20043;-68
2023/08/22 08:55:35;;;;;;;11.68;5.55;;;;;;;22.17;87.24;101996.09;5090051;28;20075;-68
2023/08/22 08:58:01;;;;;;;9.82;4.70;;;;;;;22.12;87.13;101991.41;5090402;28;20074;-68
2023/08/22 09:00:27;;;;;;;9.90;5.40;;;;;;;22.15;88.94;102003.66;5090196;28;20044;-68
2023/08/22 09:02:53;;;;;;;12.90;5.88;;;;;;;22.17;89.43;102013.22;5090004;28;20114;-68
2023/08/22 09:05:21;;;;;;;21.10;7.38;;;;;;;22.19;90.54;102011.13;5090106;28;20040;-68
2023/08/22 09:07:46;;;;;;;19.50;7.28;;;;;;;22.20;87.44;102014.66;5089910;28;20039;-68
2023/08/22 09:10:12;;;;;;;13.50;6.65;;;;;;;22.20;87.98;102018.19;5090054;28;20028;-68
2023/08/22 09:12:37;;;;;;;14.73;6.60;;;;;;;22.22;89.00;102002.47;5089835;28;20072;-68
2023/08/22 09:15:09;;;;;;;13.90;6.63;;;;;;;22.20;88.01;102012.75;5089740;28;20142;-68
2023/08/22 09:17:34;;;;;;;11.93;5.60;;;;;;;22.14;90.33;102005.56;5089847;28;20040;-68
2023/08/22 09:20:09;;;;;;;14.25;6.57;;;;;;;22.09;89.05;101998.13;5088966;28;21020;-68
2023/08/22 09:22:35;;;;;;;16.02;5.75;;;;;;;22.09;89.49;102002.75;5089717;28;20028;-68
2023/08/22 09:25:00;;;;;;;15.55;6.32;;;;;;;22.14;89.97;102010.16;5089877;28;20043;-68
2023/08/22 09:27:27;;;;;;;14.00;6.00;;;;;;;22.20;89.46;102015.47;5089734;28;20118;-68
2023/08/22 09:29:57;;;;;;;14.98;7.25;;;;;;;22.25;87.17;102007.41;5089423;28;20028;-68
2023/08/22 09:32:22;;;;;;;15.18;7.20;;;;;;;22.30;85.84;102002.06;5089893;28;20036;-68
2023/08/22 09:34:55;;;;;;;11.05;6.50;;;;;;;22.38;87.61;102010.88;5088168;28;20085;-68
2023/08/22 09:37:32;;;;;;;14.52;6.60;;;;;;;22.40;86.86;102011.44;5089284;28;20020;-68
2023/08/22 09:39:58;;;;;;;11.95;5.50;;;;;;;22.47;86.44;102006.66;5089405;28;20395;-68
2023/08/22 09:42:29;;;;;;;14.45;7.80;;;;;;;22.60;85.14;102009.03;5089183;28;20027;-68
2023/08/22 09:44:58;;;;;;;15.25;7.57;;;;;;;22.74;85.86;102010.34;5089632;28;20031;-68
2023/08/22 09:47:30;;;;;;;15.77;6.95;;;;;;;22.82;86.25;102002.81;5089205;28;20107;-68
2023/08/22 09:49:59;;;;;;;15.43;6.10;;;;;;;22.87;85.29;102002.88;5089331;28;20032;-68
2023/08/22 09:52:26;;;;;;;22.00;7.32;;;;;;;22.87;85.92;102006.44;5089078;28;20031;-68
2023/08/22 09:54:55;;;;;;;16.35;7.50;;;;;;;22.88;84.62;102013.53;5088976;28;20089;-69
2023/08/22 09:57:23;;;;;;;13.05;6.68;;;;;;;22.92;86.03;102016.56;5089145;28;20051;-68
2023/08/22 09:59:49;;;;;;;16.90;6.97;;;;;;;22.91;85.98;102014.91;5089008;28;20034;-68
2023/08/22 10:02:17;;;;;;;12.18;6.38;;;;;;;22.87;86.23;102011.88;5087969;28;20036;-68
2023/08/22 10:04:43;;;;;;;14.40;6.88;;;;;;;22.74;85.51;102010.34;5088830;28;20047;-68
2023/08/22 10:07:08;;;;;;;13.25;7.25;;;;;;;22.71;89.23;102010.81;5088934;28;20103;-68
2023/08/22 10:09:34;;;;;;;14.93;7.60;;;;;;;22.71;87.72;102007.28;5088893;28;20122;-68
2023/08/22 10:12:05;;;;;;;13.20;6.82;;;;;;;22.82;86.91;102008.25;5088965;28;20024;-68
2023/08/22 10:14:43;;;;;;;14.68;8.02;;;;;;;22.95;85.61;102007.88;5088881;28;20027;-68
2023/08/22 10:17:13;;;;;;;14.82;8.68;;;;;;;23.03;84.96;102010.22;5088657;28;20482;-68
2023/08/22 10:19:38;;;;;;;13.82;8.02;;;;;;;23.09;86.30;102009.22;5088750;28;20023;-68
2023/08/22 10:22:10;;;;;;;15.38;7.57;;;;;;;23.25;84.41;102012.94;5088710;28;20024;-68
2023/08/22 10:24:35;;;;;;;13.52;5.53;;;;;;;23.31;81.72;102013.81;5088669;28;20149;-68
2023/08/22 10:27:04;;;;;;;10.18;5.60;;;;;;;23.24;79.79;102007.75;5088572;28;20500;-68
2023/08/22 10:29:41;;;;;;;14.00;6.57;;;;;;;23.30;83.53;102004.03;5088578;28;20031;-68
2023/08/22 10:32:07;;;;;;;14.40;6.45;;;;;;;23.28;78.46;101998.00;5088859;28;20040;-68
2023/08/22 10:34:38;;;;;;;16.53;5.77;;;;;;;23.26;79.15;102000.16;5088443;28;20032;-68
2023/08/22 10:37:28;;;;;;;10.65;4.10;;;;;;;23.22;79.11;101999.84;5088632;28;20278;-68
2023/08/22 10:39:58;;;;;;;8.18;4.18;;;;;;;23.49;79.80;102004.50;5088339;28;20035;-68
2023/08/22 10:42:24;;;;;;;10.80;4.90;;;;;;;23.61;78.85;101997.84;5088460;28;20035;-68
2023/08/22 10:44:53;;;;;;;8.30;3.53;;;;;;;23.67;78.31;102000.63;5087214;28;20028;-68
2023/08/22 10:47:20;;;;;;;12.65;3.70;;;;;;;23.70;73.79;102000.09;5088531;28;20036;-68
2023/08/22 10:49:56;;;;;;;5.40;2.67;;;;;;;23.77;74.09;102000.75;5088368;28;20028;-68
2023/08/22 10:52:33;;;;;;;4.55;2.67;;;;;;;23.86;73.02;101996.47;5070385;28;20028;-68
2023/08/22 10:55:12;;;;;;;7.32;3.10;;;;;;;23.92;72.95;101994.63;5088302;28;20093;-68
2023/08/22 10:57:38;;;;;;;8.15;2.28;;;;;;;23.71;68.75;101988.97;5088248;28;20035;-68
2023/08/22 11:00:14;;;;;;;4.10;2.47;;;;;;;23.69;70.14;101996.56;5088424;28;20443;-68
2023/08/22 11:02:43;;;;;;;6.85;2.38;;;;;;;23.70;69.96;102000.09;5068900;28;20641;-68
2023/08/22 11:05:11;;;;;;;5.53;1.92;;;;;;;23.57;67.56;101991.25;5088173;28;20031;-68